sensor_id;sensor_type;location;lat;lon;timestamp;P1;durP1;ratioP1;P2;durP2;ratioP2
54853;SDS011;40747;49.480;8.658;2023-12-04T00:00:38;4.97;;;2.17;;
54853;SDS011;40747;49.480;8.658;2023-12-04T00:03:03;4.28;;;3.25;;
54853;SDS011;40747;49.480;8.658;2023-12-04T00:05:29;3.33;;;2.58;;
54853;SDS011;40747;49.480;8.658;2023-12-04T00:07:54;2.92;;;2.38;;
54853;SDS011;40747;49.480;8.658;2023-12-04T00:10:19;5.15;;;2.67;;
54853;SDS011;40747;49.480;8.658;2023-12-04T00:12:45;2.80;;;1.85;;
54853;SDS011;40747;49.480;8.658;2023-12-04T00:15:10;1.20;;;1.05;;
54853;SDS011;40747;49.480;8.658;2023-12-04T00:17:36;3.92;;;2.65;;
54853;SDS011;40747;49.480;8.658;2023-12-04T00:20:05;7.72;;;2.08;;
54853;SDS011;40747;49.480;8.658;2023-12-04T00:22:31;1.45;;;1.20;;
54853;SDS011;40747;49.480;8.658;2023-12-04T00:24:57;2.78;;;2.42;;
54853;SDS011;40747;49.480;8.658;2023-12-04T00:27:22;1.60;;;1.58;;
54853;SDS011;40747;49.480;8.658;2023-12-04T00:29:51;4.30;;;3.17;;
54853;SDS011;40747;49.480;8.658;2023-12-04T00:32:17;3.20;;;2.35;;
54853;SDS011;40747;49.480;8.658;2023-12-04T00:34:42;5.93;;;3.05;;
54853;SDS011;40747;49.480;8.658;2023-12-04T00:37:07;4.03;;;3.08;;
54853;SDS011;40747;49.480;8.658;2023-12-04T00:39:33;1.55;;;1.42;;
54853;SDS011;40747;49.480;8.658;2023-12-04T00:41:58;3.50;;;1.55;;
54853;SDS011;40747;49.480;8.658;2023-12-04T00:44:23;4.75;;;1.60;;
54853;SDS011;40747;49.480;8.658;2023-12-04T00:46:49;2.78;;;1.45;;
54853;SDS011;40747;49.480;8.658;2023-12-04T00:49:15;3.05;;;2.28;;
54853;SDS011;40747;49.480;8.658;2023-12-04T00:51:40;3.70;;;3.15;;
54853;SDS011;40747;49.480;8.658;2023-12-04T00:54:05;3.65;;;2.05;;
54853;SDS011;40747;49.480;8.658;2023-12-04T00:56:31;3.38;;;1.83;;
54853;SDS011;40747;49.480;8.658;2023-12-04T00:58:56;6.00;;;1.95;;
54853;SDS011;40747;49.480;8.658;2023-12-04T01:01:21;2.72;;;2.53;;
54853;SDS011;40747;49.480;8.658;2023-12-04T01:03:46;2.17;;;1.60;;
54853;SDS011;40747;49.480;8.658;2023-12-04T01:06:21;2.20;;;2.08;;
54853;SDS011;40747;49.480;8.658;2023-12-04T01:08:47;2.78;;;2.17;;
54853;SDS011;40747;49.480;8.658;2023-12-04T01:11:13;3.90;;;2.40;;
54853;SDS011;40747;49.480;8.658;2023-12-04T01:13:39;3.30;;;1.92;;
54853;SDS011;40747;49.480;8.658;2023-12-04T01:16:05;7.25;;;3.15;;
54853;SDS011;40747;49.480;8.658;2023-12-04T01:18:31;3.25;;;2.38;;
54853;SDS011;40747;49.480;8.658;2023-12-04T01:20:56;2.80;;;2.50;;
54853;SDS011;40747;49.480;8.658;2023-12-04T01:23:21;3.50;;;2.25;;
54853;SDS011;40747;49.480;8.658;2023-12-04T01:25:46;7.63;;;3.67;;
54853;SDS011;40747;49.480;8.658;2023-12-04T01:28:12;7.70;;;2.92;;
54853;SDS011;40747;49.480;8.658;2023-12-04T01:30:38;3.35;;;3.05;;
54853;SDS011;40747;49.480;8.658;2023-12-04T01:33:03;3.25;;;1.95;;
54853;SDS011;40747;49.480;8.658;2023-12-04T01:35:28;3.55;;;3.10;;
54853;SDS011;40747;49.480;8.658;2023-12-04T01:37:54;6.38;;;2.78;;
54853;SDS011;40747;49.480;8.658;2023-12-04T01:40:19;3.92;;;2.10;;
54853;SDS011;40747;49.480;8.658;2023-12-04T01:42:44;9.77;;;3.67;;
54853;SDS011;40747;49.480;8.658;2023-12-04T01:45:09;3.72;;;1.52;;
54853;SDS011;40747;49.480;8.658;2023-12-04T01:47:35;1.50;;;1.40;;
54853;SDS011;40747;49.480;8.658;2023-12-04T01:50:00;1.50;;;1.40;;
54853;SDS011;40747;49.480;8.658;2023-12-04T01:52:26;4.28;;;1.67;;
54853;SDS011;40747;49.480;8.658;2023-12-04T01:54:52;4.22;;;1.45;;
54853;SDS011;40747;49.480;8.658;2023-12-04T01:57:18;2.55;;;1.83;;
54853;SDS011;40747;49.480;8.658;2023-12-04T01:59:44;6.57;;;2.75;;
54853;SDS011;40747;49.480;8.658;2023-12-04T02:02:10;1.45;;;1.23;;
54853;SDS011;40747;49.480;8.658;2023-12-04T02:04:36;1.25;;;0.80;;
54853;SDS011;40747;49.480;8.658;2023-12-04T02:07:01;1.00;;;0.73;;
54853;SDS011;40747;49.480;8.658;2023-12-04T02:09:26;0.52;;;0.52;;
54853;SDS011;40747;49.480;8.658;2023-12-04T02:11:52;4.10;;;3.00;;
54853;SDS011;40747;49.480;8.658;2023-12-04T02:14:18;0.95;;;0.95;;
54853;SDS011;40747;49.480;8.658;2023-12-04T02:16:43;1.15;;;1.05;;
54853;SDS011;40747;49.480;8.658;2023-12-04T02:19:13;3.38;;;1.20;;
54853;SDS011;40747;49.480;8.658;2023-12-04T02:21:38;6.07;;;3.17;;
54853;SDS011;40747;49.480;8.658;2023-12-04T02:24:04;3.65;;;3.05;;
54853;SDS011;40747;49.480;8.658;2023-12-04T02:26:32;7.05;;;2.83;;
54853;SDS011;40747;49.480;8.658;2023-12-04T02:29:10;4.60;;;2.83;;
54853;SDS011;40747;49.480;8.658;2023-12-04T02:31:38;3.05;;;1.33;;
54853;SDS011;40747;49.480;8.658;2023-12-04T02:34:05;2.45;;;1.50;;
54853;SDS011;40747;49.480;8.658;2023-12-04T02:36:32;4.97;;;2.20;;
54853;SDS011;40747;49.480;8.658;2023-12-04T02:39:00;2.78;;;1.92;;
54853;SDS011;40747;49.480;8.658;2023-12-04T02:41:25;4.72;;;2.47;;
54853;SDS011;40747;49.480;8.658;2023-12-04T02:43:52;6.05;;;2.60;;
54853;SDS011;40747;49.480;8.658;2023-12-04T02:46:17;3.03;;;2.75;;
54853;SDS011;40747;49.480;8.658;2023-12-04T02:48:42;1.30;;;1.20;;
54853;SDS011;40747;49.480;8.658;2023-12-04T02:51:08;2.55;;;1.85;;
54853;SDS011;40747;49.480;8.658;2023-12-04T02:53:35;0.90;;;0.90;;
54853;SDS011;40747;49.480;8.658;2023-12-04T02:56:00;2.60;;;2.13;;
54853;SDS011;40747;49.480;8.658;2023-12-04T02:58:26;6.97;;;2.78;;
54853;SDS011;40747;49.480;8.658;2023-12-04T03:00:51;1.98;;;1.77;;
54853;SDS011;40747;49.480;8.658;2023-12-04T03:03:16;2.88;;;1.85;;
54853;SDS011;40747;49.480;8.658;2023-12-04T03:05:41;1.75;;;1.30;;
54853;SDS011;40747;49.480;8.658;2023-12-04T03:08:07;0.22;;;0.22;;
54853;SDS011;40747;49.480;8.658;2023-12-04T03:10:32;2.97;;;1.65;;
54853;SDS011;40747;49.480;8.658;2023-12-04T03:12:57;3.30;;;2.63;;
54853;SDS011;40747;49.480;8.658;2023-12-04T03:15:23;7.70;;;3.28;;
54853;SDS011;40747;49.480;8.658;2023-12-04T03:17:48;1.67;;;1.02;;
54853;SDS011;40747;49.480;8.658;2023-12-04T03:20:13;1.70;;;1.60;;
54853;SDS011;40747;49.480;8.658;2023-12-04T03:22:38;8.93;;;5.10;;
54853;SDS011;40747;49.480;8.658;2023-12-04T03:25:04;4.07;;;3.30;;
54853;SDS011;40747;49.480;8.658;2023-12-04T03:27:30;9.82;;;4.22;;
54853;SDS011;40747;49.480;8.658;2023-12-04T03:29:55;3.00;;;2.33;;
54853;SDS011;40747;49.480;8.658;2023-12-04T03:32:20;3.60;;;3.17;;
54853;SDS011;40747;49.480;8.658;2023-12-04T03:34:46;4.32;;;2.70;;
54853;SDS011;40747;49.480;8.658;2023-12-04T03:37:11;1.92;;;1.60;;
54853;SDS011;40747;49.480;8.658;2023-12-04T03:39:36;7.93;;;2.60;;
54853;SDS011;40747;49.480;8.658;2023-12-04T03:42:01;3.28;;;2.13;;
54853;SDS011;40747;49.480;8.658;2023-12-04T03:44:27;6.65;;;3.22;;
54853;SDS011;40747;49.480;8.658;2023-12-04T03:46:53;4.32;;;2.30;;
54853;SDS011;40747;49.480;8.658;2023-12-04T03:49:18;2.38;;;2.17;;
54853;SDS011;40747;49.480;8.658;2023-12-04T03:51:43;4.47;;;4.07;;
54853;SDS011;40747;49.480;8.658;2023-12-04T03:54:09;3.67;;;3.33;;
54853;SDS011;40747;49.480;8.658;2023-12-04T03:56:34;2.75;;;2.30;;
54853;SDS011;40747;49.480;8.658;2023-12-04T03:58:59;7.45;;;2.55;;
54853;SDS011;40747;49.480;8.658;2023-12-04T04:01:24;4.63;;;3.60;;
54853;SDS011;40747;49.480;8.658;2023-12-04T04:03:50;6.93;;;3.17;;
54853;SDS011;40747;49.480;8.658;2023-12-04T04:06:15;5.30;;;3.42;;
54853;SDS011;40747;49.480;8.658;2023-12-04T04:08:40;6.88;;;2.33;;
54853;SDS011;40747;49.480;8.658;2023-12-04T04:11:06;2.83;;;2.08;;
54853;SDS011;40747;49.480;8.658;2023-12-04T04:13:32;9.82;;;3.38;;
54853;SDS011;40747;49.480;8.658;2023-12-04T04:15:57;5.60;;;3.83;;
54853;SDS011;40747;49.480;8.658;2023-12-04T04:18:22;6.95;;;3.10;;
54853;SDS011;40747;49.480;8.658;2023-12-04T04:20:48;3.10;;;2.63;;
54853;SDS011;40747;49.480;8.658;2023-12-04T04:23:13;7.47;;;4.25;;
54853;SDS011;40747;49.480;8.658;2023-12-04T04:25:38;4.40;;;3.83;;
54853;SDS011;40747;49.480;8.658;2023-12-04T04:28:03;3.08;;;2.47;;
54853;SDS011;40747;49.480;8.658;2023-12-04T04:30:29;2.60;;;2.08;;
54853;SDS011;40747;49.480;8.658;2023-12-04T04:32:54;3.22;;;2.25;;
54853;SDS011;40747;49.480;8.658;2023-12-04T04:35:19;9.57;;;4.55;;
54853;SDS011;40747;49.480;8.658;2023-12-04T04:37:45;3.15;;;2.20;;
54853;SDS011;40747;49.480;8.658;2023-12-04T04:40:10;5.18;;;3.40;;
54853;SDS011;40747;49.480;8.658;2023-12-04T04:42:35;4.18;;;3.75;;
54853;SDS011;40747;49.480;8.658;2023-12-04T04:45:01;3.20;;;2.45;;
54853;SDS011;40747;49.480;8.658;2023-12-04T04:47:26;3.03;;;2.72;;
54853;SDS011;40747;49.480;8.658;2023-12-04T04:49:52;3.67;;;2.35;;
54853;SDS011;40747;49.480;8.658;2023-12-04T04:52:17;3.97;;;3.58;;
54853;SDS011;40747;49.480;8.658;2023-12-04T04:54:43;9.75;;;2.90;;
54853;SDS011;40747;49.480;8.658;2023-12-04T04:57:08;4.63;;;4.20;;
54853;SDS011;40747;49.480;8.658;2023-12-04T04:59:33;6.95;;;3.90;;
54853;SDS011;40747;49.480;8.658;2023-12-04T05:01:59;8.32;;;3.85;;
54853;SDS011;40747;49.480;8.658;2023-12-04T05:04:24;2.97;;;2.05;;
54853;SDS011;40747;49.480;8.658;2023-12-04T05:06:49;2.03;;;1.77;;
54853;SDS011;40747;49.480;8.658;2023-12-04T05:09:15;3.40;;;3.10;;
54853;SDS011;40747;49.480;8.658;2023-12-04T05:11:40;5.97;;;2.95;;
54853;SDS011;40747;49.480;8.658;2023-12-04T05:14:06;4.03;;;3.38;;
54853;SDS011;40747;49.480;8.658;2023-12-04T05:16:31;2.03;;;1.50;;
54853;SDS011;40747;49.480;8.658;2023-12-04T05:18:56;5.35;;;3.15;;
54853;SDS011;40747;49.480;8.658;2023-12-04T05:21:22;4.85;;;2.40;;
54853;SDS011;40747;49.480;8.658;2023-12-04T05:23:47;3.92;;;2.70;;
54853;SDS011;40747;49.480;8.658;2023-12-04T05:26:12;9.15;;;4.80;;
54853;SDS011;40747;49.480;8.658;2023-12-04T05:28:38;18.58;;;9.13;;
54853;SDS011;40747;49.480;8.658;2023-12-04T05:31:03;18.42;;;9.20;;
54853;SDS011;40747;49.480;8.658;2023-12-04T05:33:29;20.30;;;9.40;;
54853;SDS011;40747;49.480;8.658;2023-12-04T05:35:54;21.85;;;10.38;;
54853;SDS011;40747;49.480;8.658;2023-12-04T05:38:20;13.65;;;7.07;;
54853;SDS011;40747;49.480;8.658;2023-12-04T05:40:45;24.38;;;12.32;;
54853;SDS011;40747;49.480;8.658;2023-12-04T05:43:11;17.85;;;9.00;;
54853;SDS011;40747;49.480;8.658;2023-12-04T05:45:36;25.48;;;11.98;;
54853;SDS011;40747;49.480;8.658;2023-12-04T05:48:01;23.92;;;12.48;;
54853;SDS011;40747;49.480;8.658;2023-12-04T05:50:27;22.40;;;11.02;;
54853;SDS011;40747;49.480;8.658;2023-12-04T05:52:52;17.98;;;9.45;;
54853;SDS011;40747;49.480;8.658;2023-12-04T05:55:18;3.83;;;3.53;;
54853;SDS011;40747;49.480;8.658;2023-12-04T05:57:43;5.88;;;3.47;;
54853;SDS011;40747;49.480;8.658;2023-12-04T06:00:09;4.28;;;2.92;;
54853;SDS011;40747;49.480;8.658;2023-12-04T06:02:41;7.38;;;3.67;;
54853;SDS011;40747;49.480;8.658;2023-12-04T06:05:07;2.80;;;2.10;;
54853;SDS011;40747;49.480;8.658;2023-12-04T06:07:33;5.10;;;3.13;;
54853;SDS011;40747;49.480;8.658;2023-12-04T06:09:58;8.18;;;4.38;;
54853;SDS011;40747;49.480;8.658;2023-12-04T06:12:24;5.50;;;4.22;;
54853;SDS011;40747;49.480;8.658;2023-12-04T06:14:49;5.75;;;3.95;;
54853;SDS011;40747;49.480;8.658;2023-12-04T06:17:14;4.30;;;3.88;;
54853;SDS011;40747;49.480;8.658;2023-12-04T06:19:39;7.85;;;4.05;;
54853;SDS011;40747;49.480;8.658;2023-12-04T06:22:05;7.68;;;4.55;;
54853;SDS011;40747;49.480;8.658;2023-12-04T06:24:30;9.15;;;4.93;;
54853;SDS011;40747;49.480;8.658;2023-12-04T06:26:56;8.32;;;5.68;;
54853;SDS011;40747;49.480;8.658;2023-12-04T06:29:22;4.32;;;3.20;;
54853;SDS011;40747;49.480;8.658;2023-12-04T06:31:48;9.82;;;6.05;;
54853;SDS011;40747;49.480;8.658;2023-12-04T06:34:13;5.75;;;4.90;;
54853;SDS011;40747;49.480;8.658;2023-12-04T06:36:39;6.63;;;4.22;;
54853;SDS011;40747;49.480;8.658;2023-12-04T06:39:08;2.97;;;2.53;;
54853;SDS011;40747;49.480;8.658;2023-12-04T06:41:35;4.40;;;3.58;;
54853;SDS011;40747;49.480;8.658;2023-12-04T06:44:01;9.95;;;4.28;;
54853;SDS011;40747;49.480;8.658;2023-12-04T06:46:26;2.83;;;2.47;;
54853;SDS011;40747;49.480;8.658;2023-12-04T06:48:57;3.65;;;2.90;;
54853;SDS011;40747;49.480;8.658;2023-12-04T06:51:24;5.38;;;3.47;;
54853;SDS011;40747;49.480;8.658;2023-12-04T06:53:49;1.65;;;1.38;;
54853;SDS011;40747;49.480;8.658;2023-12-04T06:56:14;2.85;;;1.30;;
54853;SDS011;40747;49.480;8.658;2023-12-04T06:58:40;0.77;;;0.77;;
54853;SDS011;40747;49.480;8.658;2023-12-04T07:01:05;1.48;;;1.38;;
54853;SDS011;40747;49.480;8.658;2023-12-04T07:03:31;1.52;;;1.45;;
54853;SDS011;40747;49.480;8.658;2023-12-04T07:05:56;1.60;;;0.88;;
54853;SDS011;40747;49.480;8.658;2023-12-04T07:08:21;1.77;;;1.02;;
54853;SDS011;40747;49.480;8.658;2023-12-04T07:10:46;0.47;;;0.47;;
54853;SDS011;40747;49.480;8.658;2023-12-04T07:13:12;15.98;;;8.15;;
54853;SDS011;40747;49.480;8.658;2023-12-04T07:15:38;5.93;;;3.72;;
54853;SDS011;40747;49.480;8.658;2023-12-04T07:18:03;8.38;;;3.38;;
54853;SDS011;40747;49.480;8.658;2023-12-04T07:20:29;3.63;;;2.33;;
54853;SDS011;40747;49.480;8.658;2023-12-04T07:22:54;0.47;;;0.47;;
54853;SDS011;40747;49.480;8.658;2023-12-04T07:25:19;1.15;;;1.08;;
54853;SDS011;40747;49.480;8.658;2023-12-04T07:27:45;14.10;;;6.00;;
54853;SDS011;40747;49.480;8.658;2023-12-04T07:30:11;7.70;;;5.22;;
54853;SDS011;40747;49.480;8.658;2023-12-04T07:32:37;5.90;;;4.38;;
54853;SDS011;40747;49.480;8.658;2023-12-04T07:35:02;3.40;;;2.88;;
54853;SDS011;40747;49.480;8.658;2023-12-04T07:37:28;8.52;;;4.75;;
54853;SDS011;40747;49.480;8.658;2023-12-04T07:39:55;8.38;;;2.47;;
54853;SDS011;40747;49.480;8.658;2023-12-04T07:42:21;7.40;;;3.70;;
54853;SDS011;40747;49.480;8.658;2023-12-04T07:44:47;5.35;;;4.82;;
54853;SDS011;40747;49.480;8.658;2023-12-04T07:47:12;3.42;;;3.22;;
54853;SDS011;40747;49.480;8.658;2023-12-04T07:49:38;8.38;;;3.88;;
54853;SDS011;40747;49.480;8.658;2023-12-04T07:52:03;28.02;;;14.65;;
54853;SDS011;40747;49.480;8.658;2023-12-04T07:54:29;17.27;;;9.15;;
54853;SDS011;40747;49.480;8.658;2023-12-04T07:56:54;31.60;;;15.68;;
54853;SDS011;40747;49.480;8.658;2023-12-04T07:59:19;28.98;;;13.85;;
54853;SDS011;40747;49.480;8.658;2023-12-04T08:01:45;33.17;;;17.58;;
54853;SDS011;40747;49.480;8.658;2023-12-04T08:04:10;25.83;;;15.10;;
54853;SDS011;40747;49.480;8.658;2023-12-04T08:06:36;34.85;;;14.88;;
54853;SDS011;40747;49.480;8.658;2023-12-04T08:09:01;28.30;;;11.98;;
54853;SDS011;40747;49.480;8.658;2023-12-04T08:11:27;21.65;;;10.07;;
54853;SDS011;40747;49.480;8.658;2023-12-04T08:13:53;21.35;;;12.00;;
54853;SDS011;40747;49.480;8.658;2023-12-04T08:16:18;15.25;;;8.27;;
54853;SDS011;40747;49.480;8.658;2023-12-04T08:18:45;24.40;;;12.65;;
54853;SDS011;40747;49.480;8.658;2023-12-04T08:21:10;13.75;;;7.15;;
54853;SDS011;40747;49.480;8.658;2023-12-04T08:23:36;21.20;;;10.43;;
54853;SDS011;40747;49.480;8.658;2023-12-04T08:26:02;17.92;;;10.32;;
54853;SDS011;40747;49.480;8.658;2023-12-04T08:28:27;30.98;;;14.07;;
54853;SDS011;40747;49.480;8.658;2023-12-04T08:30:52;20.65;;;9.50;;
54853;SDS011;40747;49.480;8.658;2023-12-04T08:33:18;20.65;;;10.38;;
54853;SDS011;40747;49.480;8.658;2023-12-04T08:35:45;24.73;;;12.20;;
54853;SDS011;40747;49.480;8.658;2023-12-04T08:38:10;16.88;;;10.15;;
54853;SDS011;40747;49.480;8.658;2023-12-04T08:40:36;23.83;;;13.20;;
54853;SDS011;40747;49.480;8.658;2023-12-04T08:43:01;16.02;;;8.85;;
54853;SDS011;40747;49.480;8.658;2023-12-04T08:45:28;28.38;;;13.45;;
54853;SDS011;40747;49.480;8.658;2023-12-04T08:47:54;15.32;;;8.43;;
54853;SDS011;40747;49.480;8.658;2023-12-04T08:50:19;19.00;;;8.88;;
54853;SDS011;40747;49.480;8.658;2023-12-04T08:52:45;17.27;;;10.02;;
54853;SDS011;40747;49.480;8.658;2023-12-04T08:55:10;23.65;;;10.68;;
54853;SDS011;40747;49.480;8.658;2023-12-04T08:57:35;20.35;;;11.73;;
54853;SDS011;40747;49.480;8.658;2023-12-04T09:00:01;21.92;;;11.88;;
54853;SDS011;40747;49.480;8.658;2023-12-04T09:02:28;24.23;;;10.82;;
54853;SDS011;40747;49.480;8.658;2023-12-04T09:04:53;20.55;;;11.90;;
54853;SDS011;40747;49.480;8.658;2023-12-04T09:07:19;9.98;;;5.43;;
54853;SDS011;40747;49.480;8.658;2023-12-04T09:09:44;7.03;;;4.40;;
54853;SDS011;40747;49.480;8.658;2023-12-04T09:12:11;11.52;;;6.80;;
54853;SDS011;40747;49.480;8.658;2023-12-04T09:14:36;17.55;;;9.15;;
54853;SDS011;40747;49.480;8.658;2023-12-04T09:17:01;7.85;;;5.88;;
54853;SDS011;40747;49.480;8.658;2023-12-04T09:19:28;18.70;;;8.88;;
54853;SDS011;40747;49.480;8.658;2023-12-04T09:21:53;26.50;;;12.10;;
54853;SDS011;40747;49.480;8.658;2023-12-04T09:24:19;11.77;;;6.97;;
54853;SDS011;40747;49.480;8.658;2023-12-04T09:26:44;21.63;;;11.50;;
54853;SDS011;40747;49.480;8.658;2023-12-04T09:29:11;14.73;;;6.80;;
54853;SDS011;40747;49.480;8.658;2023-12-04T09:31:37;16.27;;;8.90;;
54853;SDS011;40747;49.480;8.658;2023-12-04T09:34:02;18.27;;;9.57;;
54853;SDS011;40747;49.480;8.658;2023-12-04T09:36:28;25.88;;;12.23;;
54853;SDS011;40747;49.480;8.658;2023-12-04T09:38:53;20.92;;;10.95;;
54853;SDS011;40747;49.480;8.658;2023-12-04T09:41:18;23.27;;;11.05;;
54853;SDS011;40747;49.480;8.658;2023-12-04T09:43:45;23.88;;;11.90;;
54853;SDS011;40747;49.480;8.658;2023-12-04T09:46:11;24.40;;;12.68;;
54853;SDS011;40747;49.480;8.658;2023-12-04T09:48:37;19.80;;;11.35;;
54853;SDS011;40747;49.480;8.658;2023-12-04T09:51:03;22.45;;;11.52;;
54853;SDS011;40747;49.480;8.658;2023-12-04T09:53:30;20.05;;;9.80;;
54853;SDS011;40747;49.480;8.658;2023-12-04T09:55:57;22.10;;;9.50;;
54853;SDS011;40747;49.480;8.658;2023-12-04T09:58:25;14.85;;;8.68;;
54853;SDS011;40747;49.480;8.658;2023-12-04T10:00:54;4.72;;;3.65;;
54853;SDS011;40747;49.480;8.658;2023-12-04T10:03:20;13.57;;;7.70;;
54853;SDS011;40747;49.480;8.658;2023-12-04T10:05:45;15.77;;;7.55;;
54853;SDS011;40747;49.480;8.658;2023-12-04T10:08:11;8.77;;;6.82;;
54853;SDS011;40747;49.480;8.658;2023-12-04T10:10:36;9.48;;;7.40;;
54853;SDS011;40747;49.480;8.658;2023-12-04T10:13:02;24.35;;;6.15;;
54853;SDS011;40747;49.480;8.658;2023-12-04T10:15:28;11.32;;;5.47;;
54853;SDS011;40747;49.480;8.658;2023-12-04T10:17:53;15.38;;;7.38;;
54853;SDS011;40747;49.480;8.658;2023-12-04T10:20:19;23.83;;;12.93;;
54853;SDS011;40747;49.480;8.658;2023-12-04T10:22:56;14.32;;;7.45;;
54853;SDS011;40747;49.480;8.658;2023-12-04T10:25:23;26.85;;;13.27;;
54853;SDS011;40747;49.480;8.658;2023-12-04T10:27:53;21.67;;;11.02;;
54853;SDS011;40747;49.480;8.658;2023-12-04T10:30:37;18.92;;;10.02;;
54853;SDS011;40747;49.480;8.658;2023-12-04T10:35:30;8.80;;;5.13;;
54853;SDS011;40747;49.480;8.658;2023-12-04T10:37:56;26.70;;;12.25;;
54853;SDS011;40747;49.480;8.658;2023-12-04T10:40:22;21.63;;;11.23;;
54853;SDS011;40747;49.480;8.658;2023-12-04T10:42:49;15.70;;;7.35;;
54853;SDS011;40747;49.480;8.658;2023-12-04T10:45:14;18.67;;;9.80;;
54853;SDS011;40747;49.480;8.658;2023-12-04T10:47:40;19.70;;;9.70;;
54853;SDS011;40747;49.480;8.658;2023-12-04T10:50:05;26.27;;;12.02;;
54853;SDS011;40747;49.480;8.658;2023-12-04T10:52:32;20.55;;;10.40;;
54853;SDS011;40747;49.480;8.658;2023-12-04T10:54:58;15.40;;;7.95;;
54853;SDS011;40747;49.480;8.658;2023-12-04T10:57:27;17.23;;;9.40;;
54853;SDS011;40747;49.480;8.658;2023-12-04T10:59:57;17.70;;;10.35;;
54853;SDS011;40747;49.480;8.658;2023-12-04T11:02:28;18.80;;;10.68;;
54853;SDS011;40747;49.480;8.658;2023-12-04T11:04:58;20.00;;;10.57;;
54853;SDS011;40747;49.480;8.658;2023-12-04T11:07:50;22.63;;;10.65;;
54853;SDS011;40747;49.480;8.658;2023-12-04T11:10:19;21.60;;;11.45;;
54853;SDS011;40747;49.480;8.658;2023-12-04T11:12:47;13.73;;;7.80;;
54853;SDS011;40747;49.480;8.658;2023-12-04T11:15:19;17.02;;;9.57;;
54853;SDS011;40747;49.480;8.658;2023-12-04T11:17:49;21.00;;;8.90;;
54853;SDS011;40747;49.480;8.658;2023-12-04T11:20:19;13.45;;;6.20;;
54853;SDS011;40747;49.480;8.658;2023-12-04T11:22:48;20.15;;;10.00;;
54853;SDS011;40747;49.480;8.658;2023-12-04T11:25:15;20.95;;;10.52;;
54853;SDS011;40747;49.480;8.658;2023-12-04T11:27:41;16.90;;;10.88;;
54853;SDS011;40747;49.480;8.658;2023-12-04T11:30:07;19.13;;;10.35;;
54853;SDS011;40747;49.480;8.658;2023-12-04T11:32:43;13.30;;;6.70;;
54853;SDS011;40747;49.480;8.658;2023-12-04T11:35:14;7.90;;;4.75;;
54853;SDS011;40747;49.480;8.658;2023-12-04T11:37:40;13.18;;;4.30;;
54853;SDS011;40747;49.480;8.658;2023-12-04T11:40:08;2.85;;;2.00;;
54853;SDS011;40747;49.480;8.658;2023-12-04T11:42:36;4.97;;;3.08;;
54853;SDS011;40747;49.480;8.658;2023-12-04T11:45:04;11.90;;;5.90;;
54853;SDS011;40747;49.480;8.658;2023-12-04T11:47:30;13.85;;;6.65;;
54853;SDS011;40747;49.480;8.658;2023-12-04T11:50:13;10.32;;;6.57;;
54853;SDS011;40747;49.480;8.658;2023-12-04T11:52:38;7.57;;;5.38;;
54853;SDS011;40747;49.480;8.658;2023-12-04T11:55:04;11.73;;;5.78;;
54853;SDS011;40747;49.480;8.658;2023-12-04T11:57:37;5.65;;;2.42;;
54853;SDS011;40747;49.480;8.658;2023-12-04T12:02:33;3.25;;;2.63;;
54853;SDS011;40747;49.480;8.658;2023-12-04T12:04:58;8.50;;;3.65;;
54853;SDS011;40747;49.480;8.658;2023-12-04T12:07:23;8.43;;;4.03;;
54853;SDS011;40747;49.480;8.658;2023-12-04T12:09:49;9.23;;;4.40;;
54853;SDS011;40747;49.480;8.658;2023-12-04T12:12:15;3.50;;;2.60;;
54853;SDS011;40747;49.480;8.658;2023-12-04T12:14:40;9.98;;;5.43;;
54853;SDS011;40747;49.480;8.658;2023-12-04T12:17:05;6.15;;;3.50;;
54853;SDS011;40747;49.480;8.658;2023-12-04T12:19:31;9.90;;;3.58;;
54853;SDS011;40747;49.480;8.658;2023-12-04T12:21:57;5.07;;;3.30;;
54853;SDS011;40747;49.480;8.658;2023-12-04T12:24:23;4.63;;;2.47;;
54853;SDS011;40747;49.480;8.658;2023-12-04T12:26:50;5.95;;;3.70;;
54853;SDS011;40747;49.480;8.658;2023-12-04T12:29:15;7.30;;;4.72;;
54853;SDS011;40747;49.480;8.658;2023-12-04T12:31:40;5.75;;;3.63;;
54853;SDS011;40747;49.480;8.658;2023-12-04T12:34:06;7.65;;;4.40;;
54853;SDS011;40747;49.480;8.658;2023-12-04T12:36:31;9.13;;;4.72;;
54853;SDS011;40747;49.480;8.658;2023-12-04T12:38:58;5.60;;;3.83;;
54853;SDS011;40747;49.480;8.658;2023-12-04T12:41:25;7.18;;;4.90;;
54853;SDS011;40747;49.480;8.658;2023-12-04T12:43:51;6.93;;;3.67;;
54853;SDS011;40747;49.480;8.658;2023-12-04T12:46:18;5.22;;;3.60;;
54853;SDS011;40747;49.480;8.658;2023-12-04T12:48:43;3.38;;;3.08;;
54853;SDS011;40747;49.480;8.658;2023-12-04T12:51:09;3.33;;;2.25;;
54853;SDS011;40747;49.480;8.658;2023-12-04T12:53:36;3.53;;;2.03;;
54853;SDS011;40747;49.480;8.658;2023-12-04T12:56:01;4.93;;;1.30;;
54853;SDS011;40747;49.480;8.658;2023-12-04T12:58:28;3.67;;;2.25;;
54853;SDS011;40747;49.480;8.658;2023-12-04T13:00:53;2.97;;;2.38;;
54853;SDS011;40747;49.480;8.658;2023-12-04T13:03:19;2.78;;;1.73;;
54853;SDS011;40747;49.480;8.658;2023-12-04T13:05:45;3.83;;;2.53;;
54853;SDS011;40747;49.480;8.658;2023-12-04T13:08:11;1.15;;;0.73;;
54853;SDS011;40747;49.480;8.658;2023-12-04T13:10:37;1.63;;;1.33;;
54853;SDS011;40747;49.480;8.658;2023-12-04T13:13:03;1.58;;;1.40;;
54853;SDS011;40747;49.480;8.658;2023-12-04T13:15:28;5.25;;;2.85;;
54853;SDS011;40747;49.480;8.658;2023-12-04T13:17:54;5.35;;;3.05;;
54853;SDS011;40747;49.480;8.658;2023-12-04T13:20:19;5.25;;;2.60;;
54853;SDS011;40747;49.480;8.658;2023-12-04T13:22:44;8.80;;;6.03;;
54853;SDS011;40747;49.480;8.658;2023-12-04T13:25:10;27.30;;;11.00;;
54853;SDS011;40747;49.480;8.658;2023-12-04T13:27:39;20.52;;;12.13;;
54853;SDS011;40747;49.480;8.658;2023-12-04T13:30:07;25.55;;;11.93;;
54853;SDS011;40747;49.480;8.658;2023-12-04T13:32:34;27.50;;;13.40;;
54853;SDS011;40747;49.480;8.658;2023-12-04T13:35:00;33.03;;;15.15;;
54853;SDS011;40747;49.480;8.658;2023-12-04T13:37:25;20.60;;;8.48;;
54853;SDS011;40747;49.480;8.658;2023-12-04T13:39:53;13.90;;;8.10;;
54853;SDS011;40747;49.480;8.658;2023-12-04T13:42:23;26.00;;;13.57;;
54853;SDS011;40747;49.480;8.658;2023-12-04T13:45:07;21.77;;;10.95;;
54853;SDS011;40747;49.480;8.658;2023-12-04T13:47:37;28.63;;;13.32;;
54853;SDS011;40747;49.480;8.658;2023-12-04T13:50:03;23.60;;;11.43;;
54853;SDS011;40747;49.480;8.658;2023-12-04T13:52:30;22.02;;;10.63;;
54853;SDS011;40747;49.480;8.658;2023-12-04T13:54:58;23.48;;;12.05;;
54853;SDS011;40747;49.480;8.658;2023-12-04T13:57:24;29.95;;;13.90;;
54853;SDS011;40747;49.480;8.658;2023-12-04T13:59:57;23.20;;;12.70;;
54853;SDS011;40747;49.480;8.658;2023-12-04T14:02:24;25.73;;;14.10;;
54853;SDS011;40747;49.480;8.658;2023-12-04T14:04:49;23.77;;;12.82;;
54853;SDS011;40747;49.480;8.658;2023-12-04T14:07:15;34.53;;;15.23;;
54853;SDS011;40747;49.480;8.658;2023-12-04T14:09:41;11.98;;;6.45;;
54853;SDS011;40747;49.480;8.658;2023-12-04T14:12:06;27.45;;;12.07;;
54853;SDS011;40747;49.480;8.658;2023-12-04T14:14:32;16.98;;;10.52;;
54853;SDS011;40747;49.480;8.658;2023-12-04T14:16:58;21.25;;;11.60;;
54853;SDS011;40747;49.480;8.658;2023-12-04T14:19:24;28.02;;;10.00;;
54853;SDS011;40747;49.480;8.658;2023-12-04T14:21:50;15.25;;;8.45;;
54853;SDS011;40747;49.480;8.658;2023-12-04T14:24:15;12.32;;;6.72;;
54853;SDS011;40747;49.480;8.658;2023-12-04T14:26:40;18.17;;;11.23;;
54853;SDS011;40747;49.480;8.658;2023-12-04T14:29:06;18.25;;;10.32;;
54853;SDS011;40747;49.480;8.658;2023-12-04T14:31:33;11.90;;;7.40;;
54853;SDS011;40747;49.480;8.658;2023-12-04T14:33:59;13.15;;;8.43;;
54853;SDS011;40747;49.480;8.658;2023-12-04T14:36:24;26.48;;;11.88;;
54853;SDS011;40747;49.480;8.658;2023-12-04T14:38:52;11.57;;;7.78;;